• Join FlightAware (Why Join?)
  • Login
  • US Flag 
08:20AM EDT


 

Airport Tracker/Info


-or-


 

Live Flight TrackerFlight Track Log ✈ USC108 ✈ 07-May-2013 ✈ KJVY - KOSU

Flight Track Log - Related Links

Times and Time Zones

All times are in EDT time to prevent confusion due to time zone crossing. See the USC108 flight status page for this flight to view local times or setup timezone preferences in your user account.

Time Position Orientation Groundspeed Altitude Reporting Facility
EDT Latitude Longitude Course Direction KTS MPH feet Rate Location/Type
12:38AM 38.4167 -85.7000 52° Northeast 129 148 2,800  Level Louisville TRACON
12:40AM 38.4403 -85.6617 52° Northeast 114 131 4,500 840 Climbing Indianapolis Center
12:41AM 38.4658 -85.6297 44° Northeast 122 140 5,100 900 Climbing Indianapolis Center
12:42AM 38.4994 -85.5917 42° Northeast 132 152 6,400 960 Climbing Indianapolis Center
12:43AM 38.5189 -85.5589 53° Northeast 119 137 7,100 300 Climbing Indianapolis Center
12:44AM 38.5431 -85.5189 52° Northeast 137 158 7,100  Level Indianapolis Center
12:45AM 38.5733 -85.4733 50° Northeast 163 188 7,100  Level Indianapolis Center
12:46AM 38.5994 -85.4261 55° Northeast 162 186 7,100  Level Indianapolis Center
12:47AM 38.6292 -85.3772 52° Northeast 170 196 7,100  Level Indianapolis Center
12:48AM 38.6594 -85.3322 49° Northeast 170 196 7,100 -60 Level Indianapolis Center
12:49AM 38.6864 -85.2892 51° Northeast 163 188 7,000 -60 Descending Indianapolis Center
12:50AM 38.7144 -85.2442 51° Northeast 162 186 7,000  Level Indianapolis Center
12:51AM 38.7428 -85.2000 51° Northeast 162 186 7,000  Level Indianapolis Center
12:52AM 38.7711 -85.1553 51° Northeast 161 185 7,100  Climbing Indianapolis Center
12:53AM 38.7983 -85.1111 52° Northeast 159 183 7,100  Level Indianapolis Center
12:54AM 38.8256 -85.0658 52° Northeast 160 184 7,100  Level Indianapolis Center
12:55AM 38.8542 -85.0194 52° Northeast 166 191 7,100  Level Indianapolis Center
12:56AM 38.8817 -84.9742 52° Northeast 163 188 7,100  Level Indianapolis Center
12:57AM 38.9117 -84.9283 50° Northeast 167 192 7,100  Level Indianapolis Center
12:58AM 38.9400 -84.8828 51° Northeast 165 190 7,100  Level Indianapolis Center
12:58AM 38.9500 -84.8667 51° Northeast 169 194 7,100 -120 Level Cincinnati TRACON
12:59AM 38.9833 -84.8167 49° Northeast 167 192 7,000  Descending Cincinnati TRACON
01:00AM 39.0167 -84.7667 49° Northeast 165 190 7,100  Climbing Cincinnati TRACON
01:01AM 39.0500 -84.7167 49° Northeast 168 193 7,100  Level Cincinnati TRACON
01:02AM 39.0833 -84.6833 38° Northeast 168 193 7,100  Level Cincinnati TRACON
01:03AM 39.1000 -84.6333 67° East 168 193 7,100  Level Cincinnati TRACON
01:04AM 39.1333 -84.5833 49° Northeast 163 188 7,100  Level Cincinnati TRACON
01:05AM 39.1536 -84.5694 28° Northeast 163 188 7,100  Level Indianapolis Center
01:06AM 39.1842 -84.5250 48° Northeast 163 188 7,100 -240 Level Indianapolis Center
01:07AM 39.2106 -84.4822 51° Northeast 166 191 6,700 -600 Descending Indianapolis Center
01:07AM 39.2286 -84.4417 60° Northeast 182 209 6,200 -780 Descending Indianapolis Center
01:08AM 39.2367 -84.4169 67° East 181 208 5,800 -600 Descending Indianapolis Center
01:08AM 39.2500 -84.3853 61° Northeast 178 205 5,600 -720 Descending Indianapolis Center
01:09AM 39.2672 -84.3667 40° Northeast 181 208 5,100 -540 Descending Indianapolis Center
01:09AM 39.2950 -84.3481 27° Northeast 190 219 5,100 -120 Level Indianapolis Center
01:10AM 39.3108 -84.3344 34° Northeast 182 209 5,000  Descending Indianapolis Center
01:10AM 39.3314 -84.3125 40° Northeast 168 193 5,100  Climbing Indianapolis Center
01:11AM 39.3483 -84.2958 37° Northeast 174 200 5,000  Descending Indianapolis Center
01:11AM 39.3681 -84.2742 40° Northeast 166 191 5,100 60 Climbing Indianapolis Center
01:12AM 39.3817 -84.2544 48° Northeast 169 194 5,100  Level Indianapolis Center
01:12AM 39.3989 -84.2294 48° Northeast 168 193 5,100  Level Indianapolis Center
01:13AM 39.4133 -84.2108 45° Northeast 166 191 5,100 60 Level Indianapolis Center
01:13AM 39.4278 -84.1794 59° Northeast 165 190 5,200 -120 Climbing Indianapolis Center
01:14AM 39.4406 -84.1619 47° Northeast 166 191 5,000  Descending Indianapolis Center
01:14AM 39.4547 -84.1314 59° Northeast 165 190 5,200 180 Climbing Indianapolis Center
01:15AM 39.4639 -84.1106 60° Northeast 165 190 5,200 -120 Level Indianapolis Center
01:15AM 39.4775 -84.0803 60° Northeast 165 190 5,100  Descending Indianapolis Center
01:16AM 39.4878 -84.0594 57° Northeast 164 189 5,200  Climbing Indianapolis Center
01:16AM 39.5025 -84.0294 58° Northeast 165 190 5,100  Descending Indianapolis Center
01:17AM 39.5119 -84.0083 60° Northeast 165 190 5,200  Climbing Indianapolis Center
01:17AM 39.5253 -83.9783 60° Northeast 164 189 5,100  Descending Indianapolis Center
01:18AM 39.5367 -83.9581 54° Northeast 165 190 5,200  Climbing Indianapolis Center
01:19AM 39.5519 -83.9303 54° Northeast 167 192 5,100  Descending Indianapolis Center
01:19AM 39.5642 -83.9086 54° Northeast 166 191 5,200  Climbing Indianapolis Center
01:20AM 39.5814 -83.8772 55° Northeast 168 193 5,100  Descending Indianapolis Center
01:20AM 39.5914 -83.8600 53° Northeast 166 191 5,200 60 Climbing Indianapolis Center
01:21AM 39.6081 -83.8292 55° Northeast 168 193 5,200 -120 Level Indianapolis Center
01:21AM 39.6219 -83.8122 43° Northeast 168 193 5,100  Descending Indianapolis Center
01:22AM 39.6428 -83.7847 45° Northeast 167 192 5,200 60 Climbing Indianapolis Center
01:22AM 39.6533 -83.7658 54° Northeast 169 194 5,200 -120 Level Indianapolis Center
01:23AM 39.6739 -83.7319 52° Northeast 173 199 5,100  Descending Indianapolis Center
01:23AM 39.6828 -83.7164 53° Northeast 170 196 5,200 60 Climbing Indianapolis Center
01:24AM 39.7028 -83.6839 51° Northeast 169 194 5,200 -120 Level Indianapolis Center
01:24AM 39.7125 -83.6678 52° Northeast 170 196 5,100  Descending Indianapolis Center
01:25AM 39.7336 -83.6336 51° Northeast 171 197 5,200  Climbing Indianapolis Center
01:25AM 39.7417 -83.6192 54° Northeast 170 196 5,100  Descending Indianapolis Center
01:26AM 39.7622 -83.5856 51° Northeast 167 192 5,200  Climbing Indianapolis Center
01:26AM 39.7658 -83.5797 51° Northeast 169 194 5,100  Descending Indianapolis Center
01:27AM 39.7911 -83.5375 52° Northeast 165 190 5,200 60 Climbing Indianapolis Center
01:27AM 39.7953 -83.5319 46° Northeast 168 193 5,200 -120 Level Indianapolis Center
01:28AM 39.8303 -83.4881 44° Northeast 174 200 5,100 -180 Descending Indianapolis Center
01:29AM 39.8606 -83.4428 49° Northeast 175 201 4,900 -420 Descending Indianapolis Center
01:30AM 39.8936 -83.3925 49° Northeast 186 214 4,300 -480 Descending Indianapolis Center
01:31AM 39.9289 -83.3294 54° Northeast 180 207 3,900 -360 Descending Indianapolis Center